Time;durP1;ratioP1;P1;durP2;ratioP2;P2;SDS_P1;SDS_P2;PMS_P1;PMS_P2;Temp;Humidity;BMP_temperature;BMP_pressure;BME280_temperature;BME280_humidity;BME280_pressure;Samples;Min_cycle;Max_cycle;Signal;HPM_P1;HPM_P2
2023/04/15 04:00:28;;;;;;;20.45;11.25;;;5.20;99.90;;;;;;5955491;23;20017;-79
2023/04/15 04:02:54;;;;;;;24.83;12.18;;;5.20;99.90;;;;;;4976579;28;20405;-79
2023/04/15 04:05:20;;;;;;;24.48;12.23;;;5.20;99.90;;;;;;4959428;28;20053;-79
2023/04/15 04:07:46;;;;;;;25.80;12.23;;;5.20;99.90;;;;;;4976835;28;20476;-81
2023/04/15 04:10:12;;;;;;;24.15;12.23;;;5.20;99.90;;;;;;4959471;28;20038;-80
2023/04/15 04:12:37;;;;;;;27.02;12.32;;;5.20;99.90;;;;;;4959472;28;20101;-80
2023/04/15 04:15:04;;;;;;;21.13;11.70;;;5.20;99.90;;;;;;4943475;28;20430;-80
2023/04/15 04:17:30;;;;;;;24.33;12.27;;;5.10;99.90;;;;;;4959404;28;20047;-80
2023/04/15 04:20:04;;;;;;;23.77;12.30;;;5.20;99.90;;;;;;4959295;28;20039;-80
2023/04/15 04:22:30;;;;;;;21.88;11.75;;;5.10;99.90;;;;;;4976573;28;20457;-80
2023/04/15 04:24:58;;;;;;;18.88;11.48;;;5.10;99.90;;;;;;4959505;28;20051;-79
2023/04/15 04:27:24;;;;;;;24.90;12.45;;;5.10;99.90;;;;;;4959194;28;20121;-80
2023/04/15 04:29:49;;;;;;;21.17;11.63;;;5.10;99.90;;;;;;4958589;28;20049;-80
2023/04/15 04:32:15;;;;;;;21.05;11.23;;;5.10;99.90;;;;;;4958749;28;20042;-80
2023/04/15 04:34:41;;;;;;;26.20;12.15;;;5.10;99.90;;;;;;4958911;28;20053;-78
2023/04/15 04:37:07;;;;;;;25.13;12.32;;;5.10;99.90;;;;;;4958988;28;20074;-78
2023/04/15 04:39:32;;;;;;;22.08;11.95;;;5.00;99.90;;;;;;4976053;28;20047;-79
2023/04/15 04:41:58;;;;;;;23.45;11.88;;;5.00;99.90;;;;;;4977018;28;20082;-79
2023/04/15 04:44:23;;;;;;;26.20;12.30;;;5.00;99.90;;;;;;4976429;28;20046;-81
2023/04/15 04:46:49;;;;;;;20.90;11.80;;;5.00;99.90;;;;;;4976053;28;20086;-80
2023/04/15 04:49:15;;;;;;;21.42;12.88;;;5.00;99.90;;;;;;4958930;28;20050;-80
2023/04/15 04:51:40;;;;;;;23.42;12.07;;;5.00;99.90;;;;;;4958180;28;20039;-79
2023/04/15 04:54:06;;;;;;;25.58;12.07;;;5.00;99.90;;;;;;4958001;28;20047;-79
2023/04/15 04:56:33;;;;;;;25.02;12.63;;;5.00;99.90;;;;;;4942593;28;20046;-81
2023/04/15 04:59:00;;;;;;;24.95;12.82;;;4.90;99.90;;;;;;4958891;28;20078;-80
2023/04/15 05:01:26;;;;;;;24.98;12.63;;;5.00;99.90;;;;;;4958574;28;20038;-78
2023/04/15 05:03:52;;;;;;;26.02;14.20;;;5.00;99.90;;;;;;4942272;28;20498;-79
2023/04/15 05:06:17;;;;;;;25.33;13.20;;;5.00;99.90;;;;;;4975832;28;20126;-80
2023/04/15 05:08:43;;;;;;;23.85;12.60;;;5.00;99.90;;;;;;4958441;28;20047;-80
2023/04/15 05:11:09;;;;;;;23.60;12.80;;;5.00;99.90;;;;;;4958394;28;20498;-81
2023/04/15 05:13:37;;;;;;;24.08;12.88;;;5.00;99.90;;;;;;4958314;28;20042;-79
2023/04/15 05:16:04;;;;;;;26.15;13.02;;;5.00;99.90;;;;;;4975701;28;20549;-78
2023/04/15 05:18:30;;;;;;;26.17;13.00;;;5.00;99.90;;;;;;4958465;28;20105;-79
2023/04/15 05:20:55;;;;;;;27.35;13.85;;;5.00;99.90;;;;;;4975565;28;20066;-81
2023/04/15 05:23:21;;;;;;;28.10;13.68;;;5.00;99.90;;;;;;4958359;28;20047;-79
2023/04/15 05:25:47;;;;;;;29.77;14.88;;;5.00;99.90;;;;;;4958256;28;20050;-80
2023/04/15 05:28:12;;;;;;;30.88;14.80;;;5.10;99.90;;;;;;4958449;28;20169;-81
2023/04/15 05:30:38;;;;;;;24.75;12.85;;;5.10;99.90;;;;;;4958150;28;20089;-80
2023/04/15 05:33:04;;;;;;;27.23;14.10;;;5.10;99.90;;;;;;4958317;28;20038;-79
2023/04/15 05:35:30;;;;;;;31.58;14.57;;;5.10;99.90;;;;;;4975702;28;20049;-79
2023/04/15 05:37:55;;;;;;;27.83;14.73;;;5.20;99.90;;;;;;4958292;28;20030;-78
2023/04/15 05:40:21;;;;;;;26.65;14.48;;;5.20;99.90;;;;;;4975133;28;20035;-78
2023/04/15 05:42:47;;;;;;;29.73;16.00;;;5.20;99.90;;;;;;4958037;28;20433;-81
2023/04/15 05:45:13;;;;;;;28.48;15.90;;;5.30;99.90;;;;;;4974281;28;20125;-79
2023/04/15 05:47:38;;;;;;;30.23;16.05;;;5.30;99.90;;;;;;4973204;28;20054;-79
2023/04/15 05:50:05;;;;;;;27.52;15.10;;;5.40;99.90;;;;;;4956850;28;20085;-79
2023/04/15 05:52:31;;;;;;;27.67;15.57;;;5.40;99.90;;;;;;4941346;28;20482;-81
2023/04/15 05:54:57;;;;;;;28.65;15.45;;;5.40;99.90;;;;;;4942434;29;20038;-80
2023/04/15 05:57:23;;;;;;;29.70;15.75;;;5.50;99.90;;;;;;4951745;28;20130;-80
2023/04/15 05:59:51;;;;;;;28.42;14.65;;;5.50;99.90;;;;;;4957372;28;20047;-79
2023/04/15 06:02:16;;;;;;;27.25;15.85;;;5.60;99.90;;;;;;4973698;28;20042;-81
2023/04/15 06:04:42;;;;;;;27.90;14.77;;;5.60;99.90;;;;;;4957565;28;20466;-81
2023/04/15 06:07:08;;;;;;;29.60;15.38;;;5.70;99.90;;;;;;4941625;28;20050;-78
2023/04/15 06:09:35;;;;;;;29.80;14.82;;;5.70;99.90;;;;;;4957383;28;20050;-81
2023/04/15 06:12:01;;;;;;;26.55;14.50;;;5.80;99.90;;;;;;4941538;28;20486;-80
2023/04/15 06:14:27;;;;;;;26.30;14.60;;;5.80;99.90;;;;;;4957468;28;20078;-81
2023/04/15 06:16:53;;;;;;;27.38;14.18;;;5.90;99.90;;;;;;4957107;28;20093;-79
2023/04/15 06:19:19;;;;;;;27.73;14.27;;;5.90;99.90;;;;;;4974972;28;20093;-80
2023/04/15 06:21:45;;;;;;;26.27;13.85;;;6.00;99.90;;;;;;4975276;28;20043;-81
2023/04/15 06:24:11;;;;;;;25.30;13.82;;;6.00;99.90;;;;;;4957650;28;20102;-79
2023/04/15 06:26:36;;;;;;;23.30;14.07;;;6.00;99.90;;;;;;4957400;28;20446;-80
2023/04/15 06:29:02;;;;;;;23.60;13.23;;;6.00;99.90;;;;;;4962467;28;20042;-80
2023/04/15 06:31:28;;;;;;;22.77;13.07;;;6.00;99.90;;;;;;4962596;28;20054;-78
2023/04/15 06:33:54;;;;;;;20.52;12.23;;;6.10;99.90;;;;;;4963069;28;20078;-79
2023/04/15 06:36:19;;;;;;;23.55;13.15;;;6.10;99.90;;;;;;4986956;28;20035;-75
2023/04/15 06:38:45;;;;;;;23.65;12.70;;;6.20;99.90;;;;;;4964235;28;20042;-78
2023/04/15 06:41:11;;;;;;;23.02;13.93;;;6.20;99.90;;;;;;4958383;28;20097;-80
2023/04/15 06:43:37;;;;;;;25.45;13.45;;;6.20;99.90;;;;;;4958609;28;20089;-79
2023/04/15 06:46:02;;;;;;;22.92;12.43;;;6.30;99.90;;;;;;4975628;28;20130;-80
2023/04/15 06:48:28;;;;;;;20.63;11.73;;;6.40;99.90;;;;;;4957816;28;20387;-81
2023/04/15 06:50:54;;;;;;;22.55;12.88;;;6.50;99.90;;;;;;4974667;28;20047;-81
2023/04/15 06:53:20;;;;;;;23.08;12.77;;;6.60;99.90;;;;;;4957640;28;20384;-79
2023/04/15 06:55:46;;;;;;;21.15;12.60;;;6.70;99.90;;;;;;4957820;28;20397;-79
2023/04/15 06:58:12;;;;;;;20.73;12.00;;;6.80;99.90;;;;;;4957770;28;20076;-80
2023/04/15 07:00:38;;;;;;;22.55;12.23;;;6.90;99.90;;;;;;4957288;28;20050;-80
2023/04/15 07:03:04;;;;;;;20.70;12.43;;;7.00;99.90;;;;;;4956830;28;20125;-81
2023/04/15 07:05:31;;;;;;;22.02;12.43;;;7.10;99.90;;;;;;4958018;28;20440;-80
2023/04/15 07:07:57;;;;;;;21.35;11.90;;;7.20;99.90;;;;;;4958203;28;20035;-80
2023/04/15 07:10:23;;;;;;;22.15;13.32;;;7.30;99.90;;;;;;4957093;28;20050;-79
2023/04/15 07:12:49;;;;;;;21.67;12.82;;;7.40;99.90;;;;;;4974942;28;20121;-79
2023/04/15 07:15:15;;;;;;;23.10;12.80;;;7.50;99.90;;;;;;4960406;28;20405;-80
2023/04/15 07:17:42;;;;;;;21.33;12.35;;;7.70;99.90;;;;;;4960755;28;20117;-81
2023/04/15 07:20:08;;;;;;;23.80;13.13;;;7.70;99.90;;;;;;4978401;28;20049;-79
2023/04/15 07:22:33;;;;;;;23.10;12.60;;;7.80;99.90;;;;;;4959327;28;20039;-79
2023/04/15 07:24:59;;;;;;;22.52;12.95;;;7.90;99.90;;;;;;4956366;28;20105;-78
2023/04/15 07:27:26;;;;;;;20.52;11.93;;;8.00;99.90;;;;;;4960337;28;20470;-80
2023/04/15 07:29:52;;;;;;;21.20;13.10;;;8.10;99.90;;;;;;4960731;28;20427;-79
2023/04/15 07:32:18;;;;;;;21.70;11.63;;;8.10;99.90;;;;;;4960285;28;20053;-79
2023/04/15 07:34:43;;;;;;;21.05;13.13;;;8.20;99.90;;;;;;4960367;28;20095;-79
2023/04/15 07:37:09;;;;;;;20.17;11.98;;;8.30;99.90;;;;;;4977719;28;20050;-80
2023/04/15 07:39:35;;;;;;;20.15;11.48;;;8.40;99.90;;;;;;4958997;28;20039;-79
2023/04/15 07:42:02;;;;;;;18.88;10.93;;;8.50;99.90;;;;;;4959408;28;20062;-79
2023/04/15 07:44:28;;;;;;;19.00;11.15;;;8.60;99.90;;;;;;4959661;28;20501;-81
2023/04/15 07:46:55;;;;;;;18.15;10.38;;;8.70;99.90;;;;;;4977063;28;20046;-81
2023/04/15 07:49:20;;;;;;;16.08;9.93;;;8.80;99.90;;;;;;4977377;28;20092;-78
2023/04/15 07:51:47;;;;;;;15.20;8.90;;;8.90;99.90;;;;;;4977018;28;20035;-79
2023/04/15 07:54:13;;;;;;;16.73;8.43;;;9.10;99.90;;;;;;4948801;29;20055;-78
2023/04/15 07:56:39;;;;;;;15.23;8.85;;;9.20;99.90;;;;;;4940789;29;20035;-80
2023/04/15 07:59:05;;;;;;;12.63;7.90;;;9.30;99.90;;;;;;4924928;29;20126;-80
2023/04/15 08:01:31;;;;;;;13.30;7.57;;;9.50;99.90;;;;;;4957906;28;20444;-78
2023/04/15 08:03:58;;;;;;;14.35;8.02;;;9.60;99.90;;;;;;4940033;29;20058;-78
2023/04/15 08:06:23;;;;;;;12.95;8.35;;;9.70;99.90;;;;;;4940523;29;20055;-80
2023/04/15 08:08:49;;;;;;;16.38;8.20;;;9.80;99.90;;;;;;4957769;29;20039;-79
2023/04/15 08:11:15;;;;;;;13.02;7.53;;;10.00;99.90;;;;;;4957965;28;20035;-81
2023/04/15 08:13:41;;;;;;;14.27;7.20;;;10.00;99.90;;;;;;4957720;29;20431;-81
2023/04/15 08:16:22;;;;;;;12.80;6.25;;;10.10;99.90;;;;;;4940673;29;20035;-78
2023/04/15 08:18:49;;;;;;;10.63;6.13;;;10.20;99.90;;;;;;4940098;29;20083;-80
2023/04/15 08:21:15;;;;;;;11.10;6.00;;;10.20;99.90;;;;;;4939716;29;20051;-81
2023/04/15 08:23:41;;;;;;;10.25;5.97;;;10.20;99.90;;;;;;4940048;29;20391;-79
2023/04/15 08:26:07;;;;;;;9.07;5.35;;;10.30;99.90;;;;;;4923278;29;20051;-80
2023/04/15 08:28:33;;;;;;;9.50;5.68;;;10.50;99.90;;;;;;4924179;29;20558;-80
2023/04/15 08:30:59;;;;;;;9.05;4.78;;;10.60;99.90;;;;;;4940421;29;20191;-80
2023/04/15 08:33:25;;;;;;;4.55;2.55;;;10.70;99.90;;;;;;4956553;29;20122;-79
2023/04/15 08:35:50;;;;;;;4.88;2.92;;;10.70;99.90;;;;;;4939595;29;20043;-79
2023/04/15 08:38:17;;;;;;;8.38;3.05;;;10.90;99.90;;;;;;4939796;29;20039;-77
2023/04/15 08:40:46;;;;;;;9.10;3.50;;;10.80;99.90;;;;;;4957086;28;20047;-80
2023/04/15 08:43:25;;;;;;;5.00;3.05;;;10.90;99.90;;;;;;4957504;29;20047;-79
2023/04/15 08:45:52;;;;;;;7.68;3.90;;;10.90;99.90;;;;;;4939809;29;20107;-80
2023/04/15 08:48:18;;;;;;;8.23;3.88;;;10.90;99.90;;;;;;4940116;29;20130;-79
2023/04/15 08:50:45;;;;;;;5.70;3.72;;;10.90;99.90;;;;;;4925249;29;20099;-80
2023/04/15 08:53:11;;;;;;;7.30;4.32;;;10.90;99.90;;;;;;4939697;29;20047;-79
2023/04/15 08:55:45;;;;;;;8.63;4.10;;;11.10;99.90;;;;;;4939522;29;20153;-78
2023/04/15 08:58:12;;;;;;;7.95;4.30;;;11.20;99.90;;;;;;4940304;29;20044;-79
2023/04/15 09:00:39;;;;;;;8.48;4.32;;;11.30;99.90;;;;;;4969024;28;20503;-78
2023/04/15 09:03:05;;;;;;;6.88;4.07;;;11.40;99.90;;;;;;4974915;28;20574;-81
2023/04/15 09:05:33;;;;;;;6.28;3.70;;;11.40;99.90;;;;;;4975743;28;20083;-80
2023/04/15 09:07:59;;;;;;;6.68;3.63;;;11.30;99.90;;;;;;4974715;28;20499;-79
2023/04/15 09:10:25;;;;;;;7.90;3.45;;;11.30;99.90;;;;;;4974466;28;20054;-79
2023/04/15 09:12:50;;;;;;;6.57;3.45;;;11.30;99.90;;;;;;4958523;28;20062;-80
2023/04/15 09:15:16;;;;;;;5.82;3.17;;;11.20;99.90;;;;;;4975894;28;20042;-79
2023/04/15 09:17:45;;;;;;;5.95;3.28;;;11.10;99.90;;;;;;4974285;28;20051;-79
2023/04/15 09:20:15;;;;;;;6.90;3.40;;;11.00;99.90;;;;;;4974305;28;20038;-81
2023/04/15 09:22:42;;;;;;;7.45;3.05;;;11.00;99.90;;;;;;4974665;28;20035;-80
2023/04/15 09:25:14;;;;;;;7.07;3.20;;;11.00;99.90;;;;;;4975004;28;20042;-78
2023/04/15 09:27:54;;;;;;;5.50;2.92;;;11.00;99.90;;;;;;4974235;28;20145;-81
2023/04/15 09:30:20;;;;;;;8.02;3.47;;;10.90;99.90;;;;;;4974667;28;20050;-78
2023/04/15 09:32:54;;;;;;;7.65;3.13;;;10.80;99.90;;;;;;4974426;28;20449;-81
2023/04/15 09:35:21;;;;;;;8.95;3.90;;;10.70;99.90;;;;;;4975613;28;20043;-79
2023/04/15 09:37:50;;;;;;;9.35;3.50;;;10.70;99.90;;;;;;4975040;28;20035;-78
2023/04/15 09:40:35;;;;;;;4.88;2.80;;;10.70;99.90;;;;;;4973902;28;20129;-78
2023/04/15 09:43:03;;;;;;;9.35;3.25;;;10.80;99.90;;;;;;4974012;28;20046;-79
2023/04/15 09:45:30;;;;;;;8.45;3.60;;;10.80;99.90;;;;;;4973886;28;20080;-79
2023/04/15 09:47:57;;;;;;;7.03;3.35;;;10.80;99.90;;;;;;4974163;28;20042;-78
2023/04/15 09:50:27;;;;;;;6.22;3.22;;;10.80;99.90;;;;;;4975276;28;20042;-80
2023/04/15 09:52:52;;;;;;;4.75;2.80;;;10.80;99.90;;;;;;4974629;28;20391;-80
2023/04/15 09:55:18;;;;;;;9.13;2.88;;;10.80;99.90;;;;;;4973994;28;20043;-79
2023/04/15 09:57:46;;;;;;;5.03;2.85;;;10.70;99.90;;;;;;4974221;28;20042;-80
2023/04/15 10:00:12;;;;;;;6.07;3.15;;;10.60;99.90;;;;;;4975566;28;20113;-79
2023/04/15 10:02:40;;;;;;;5.65;2.97;;;10.60;99.90;;;;;;4975518;28;20043;-78
2023/04/15 10:05:09;;;;;;;5.95;2.97;;;10.60;99.90;;;;;;4975662;28;20034;-77
2023/04/15 10:07:35;;;;;;;4.82;2.00;;;10.60;99.90;;;;;;4976048;28;20042;-81
2023/04/15 10:10:03;;;;;;;6.78;2.78;;;10.60;99.90;;;;;;4973371;28;20188;-79
2023/04/15 10:12:30;;;;;;;5.60;2.80;;;10.60;99.90;;;;;;4973599;28;20403;-80
2023/04/15 10:14:58;;;;;;;5.50;3.10;;;10.80;99.90;;;;;;4973713;28;20427;-78
2023/04/15 10:17:28;;;;;;;5.35;2.38;;;11.10;99.90;;;;;;4973590;28;20043;-78
2023/04/15 10:19:54;;;;;;;4.65;2.40;;;11.40;99.90;;;;;;4957300;28;20039;-78
2023/04/15 10:22:22;;;;;;;5.28;2.05;;;11.50;99.90;;;;;;4973069;28;20122;-80
2023/04/15 10:24:48;;;;;;;5.80;1.98;;;11.60;99.90;;;;;;4973806;28;20039;-80
2023/04/15 10:27:16;;;;;;;3.78;1.60;;;11.80;99.90;;;;;;4973585;28;20046;-78
2023/04/15 10:29:42;;;;;;;2.83;1.20;;;11.90;99.90;;;;;;4972982;28;20047;-78
2023/04/15 10:32:09;;;;;;;3.00;1.20;;;12.00;99.90;;;;;;4974791;28;20046;-78
2023/04/15 10:34:36;;;;;;;2.33;1.20;;;11.90;99.90;;;;;;4974244;28;20087;-78
2023/04/15 10:37:02;;;;;;;4.60;1.20;;;12.00;99.90;;;;;;4973504;28;20095;-77
2023/04/15 10:39:42;;;;;;;3.08;1.52;;;12.00;99.90;;;;;;4973681;28;20509;-80
2023/04/15 10:42:18;;;;;;;7.00;1.30;;;12.10;99.90;;;;;;4958138;28;20147;-81
2023/04/15 10:44:48;;;;;;;3.30;1.40;;;12.10;99.90;;;;;;4974237;28;20059;-80
2023/04/15 10:47:19;;;;;;;5.20;1.98;;;12.10;99.90;;;;;;4975555;28;20141;-79
2023/04/15 10:49:55;;;;;;;14.23;2.50;;;12.10;99.90;;;;;;4961790;28;20034;-81
2023/04/15 10:52:23;;;;;;;3.00;1.67;;;12.20;99.90;;;;;;4961716;28;20047;-78
2023/04/15 10:54:54;;;;;;;2.67;1.15;;;12.10;99.90;;;;;;4977285;28;20051;-79
2023/04/15 10:57:22;;;;;;;4.60;1.40;;;12.00;99.90;;;;;;4977428;28;20043;-81
2023/04/15 10:59:57;;;;;;;3.20;1.10;;;12.00;99.90;;;;;;4977434;28;20382;-79
2023/04/15 11:02:43;;;;;;;4.10;1.38;;;12.00;99.90;;;;;;4960564;28;20043;-78
2023/04/15 11:05:11;;;;;;;4.80;1.40;;;12.00;99.90;;;;;;4960871;28;20051;-81
2023/04/15 11:07:39;;;;;;;3.10;1.30;;;12.00;99.90;;;;;;4960934;28;20157;-80
2023/04/15 11:10:19;;;;;;;3.20;1.38;;;11.90;99.90;;;;;;4960747;28;20105;-79
2023/04/15 11:12:46;;;;;;;2.67;1.30;;;11.80;99.90;;;;;;4961788;28;20105;-79
2023/04/15 11:15:33;;;;;;;2.88;1.15;;;11.90;99.90;;;;;;4977955;28;20034;-79
2023/04/15 11:18:10;;;;;;;4.15;1.60;;;11.80;99.90;;;;;;4978308;28;20391;-80
2023/04/15 11:20:37;;;;;;;3.22;1.40;;;11.80;99.90;;;;;;4960716;28;20043;-78
2023/04/15 11:23:03;;;;;;;2.90;1.17;;;11.60;99.90;;;;;;4978381;28;20047;-79
2023/04/15 11:25:31;;;;;;;2.80;1.20;;;11.60;99.90;;;;;;4960707;28;20046;-78
2023/04/15 11:27:59;;;;;;;2.67;1.33;;;11.60;99.90;;;;;;4960494;28;20046;-79
2023/04/15 11:30:27;;;;;;;2.45;1.25;;;11.60;99.90;;;;;;4960020;28;20049;-80
2023/04/15 11:32:57;;;;;;;3.08;1.20;;;11.60;99.90;;;;;;4960073;28;20050;-79
2023/04/15 11:35:23;;;;;;;3.78;1.23;;;11.50;99.90;;;;;;4977992;28;20126;-79
2023/04/15 11:37:49;;;;;;;5.03;1.40;;;11.50;99.90;;;;;;4960610;28;20121;-78
2023/04/15 11:40:19;;;;;;;2.65;1.27;;;11.40;99.90;;;;;;4960109;28;20126;-81
2023/04/15 11:43:03;;;;;;;6.47;1.52;;;11.40;99.90;;;;;;4960721;28;20042;-82
2023/04/15 11:45:29;;;;;;;4.28;1.63;;;11.30;99.90;;;;;;4978138;28;20118;-79
2023/04/15 11:48:07;;;;;;;3.10;1.40;;;11.30;99.90;;;;;;4978455;28;20495;-83
2023/04/15 11:50:34;;;;;;;4.93;1.40;;;11.30;99.90;;;;;;4960560;28;20532;-79
2023/04/15 11:53:02;;;;;;;8.77;1.98;;;11.20;99.90;;;;;;4962002;28;20388;-79
2023/04/15 11:55:28;;;;;;;5.28;1.60;;;11.10;99.90;;;;;;4964557;28;20051;-79
2023/04/15 11:58:15;;;;;;;6.78;2.22;;;10.90;99.90;;;;;;4963989;28;20066;-77
2023/04/15 12:01:05;;;;;;;3.70;1.63;;;10.90;99.90;;;;;;4967486;28;20047;-76
2023/04/15 12:03:45;;;;;;;3.17;1.40;;;10.90;99.90;;;;;;4968726;28;20569;-79
2023/04/15 12:06:19;;;;;;;6.00;1.92;;;10.80;99.90;;;;;;4961556;28;20046;-79
2023/04/15 12:09:11;;;;;;;5.10;1.88;;;10.80;99.90;;;;;;4978258;28;20134;-81
2023/04/15 12:11:48;;;;;;;5.55;1.90;;;10.70;99.90;;;;;;4960093;28;20050;-80
2023/04/15 12:14:28;;;;;;;6.97;1.92;;;10.70;99.90;;;;;;4959923;28;20057;-82
2023/04/15 12:16:58;;;;;;;3.63;1.80;;;10.60;99.90;;;;;;4977495;28;20058;-79
2023/04/15 12:19:28;;;;;;;7.57;1.80;;;10.50;99.90;;;;;;4960045;28;20423;-79
2023/04/15 12:22:00;;;;;;;6.90;1.98;;;10.50;99.90;;;;;;4970168;28;20042;-81
2023/04/15 12:24:25;;;;;;;9.63;2.15;;;10.40;99.90;;;;;;4976415;28;20066;-80
2023/04/15 12:26:53;;;;;;;7.00;1.90;;;10.40;99.90;;;;;;4977291;28;20047;-78
2023/04/15 12:29:23;;;;;;;6.05;1.90;;;10.40;99.90;;;;;;4976075;28;20070;-79
2023/04/15 12:32:11;;;;;;;5.22;2.10;;;10.40;99.90;;;;;;4975914;28;20042;-79
2023/04/15 12:34:39;;;;;;;7.38;1.60;;;10.40;99.90;;;;;;4963586;28;20047;-80
2023/04/15 12:37:08;;;;;;;6.05;2.13;;;10.30;99.90;;;;;;4959048;28;20049;-82
2023/04/15 12:39:36;;;;;;;5.30;1.60;;;10.30;99.90;;;;;;4959823;28;20407;-83
2023/04/15 12:42:04;;;;;;;7.05;2.25;;;10.30;99.90;;;;;;4976839;28;20093;-79
2023/04/15 12:44:30;;;;;;;5.18;1.80;;;10.40;99.90;;;;;;4965435;28;20109;-79
2023/04/15 12:46:56;;;;;;;8.38;1.77;;;10.50;99.90;;;;;;4964498;28;20046;-81
2023/04/15 12:49:23;;;;;;;6.28;1.50;;;10.50;99.90;;;;;;4960995;28;20050;-79
2023/04/15 12:51:51;;;;;;;7.40;2.60;;;10.60;99.90;;;;;;4970038;28;20046;-80
2023/04/15 12:54:17;;;;;;;5.75;1.63;;;10.50;99.90;;;;;;4977608;28;20089;-79
2023/04/15 12:56:45;;;;;;;7.88;1.80;;;10.50;99.90;;;;;;4973108;28;20141;-81
2023/04/15 12:59:11;;;;;;;5.65;2.20;;;10.50;99.90;;;;;;4978922;28;20093;-80
2023/04/15 13:01:37;;;;;;;5.80;1.90;;;10.40;99.90;;;;;;4978098;28;20039;-81
2023/04/15 13:04:03;;;;;;;9.90;2.28;;;10.40;99.90;;;;;;4962133;28;20192;-79
2023/04/15 13:06:29;;;;;;;11.18;1.98;;;10.50;99.90;;;;;;4977612;28;20046;-80
2023/04/15 13:08:55;;;;;;;10.13;2.63;;;10.50;99.90;;;;;;4978815;28;20053;-78
2023/04/15 13:11:24;;;;;;;5.35;1.52;;;10.50;99.90;;;;;;4977866;28;20394;-78
2023/04/15 13:13:51;;;;;;;7.18;1.55;;;10.50;99.90;;;;;;4978156;28;20050;-79
2023/04/15 13:16:18;;;;;;;9.07;2.17;;;10.40;99.90;;;;;;4978025;28;20121;-79
2023/04/15 13:18:44;;;;;;;4.22;1.60;;;10.50;99.90;;;;;;4977896;28;20140;-83
2023/04/15 13:21:12;;;;;;;6.95;1.80;;;10.60;99.90;;;;;;4995816;28;20042;-78
2023/04/15 13:23:37;;;;;;;8.30;1.52;;;10.50;99.90;;;;;;4977863;28;20042;-80
2023/04/15 13:26:03;;;;;;;7.97;2.55;;;10.50;99.90;;;;;;4972500;28;20101;-78
2023/04/15 13:28:29;;;;;;;9.25;2.05;;;10.50;99.90;;;;;;4976247;28;20175;-79
2023/04/15 13:30:55;;;;;;;7.82;1.80;;;10.50;99.90;;;;;;4960421;28;20046;-76
2023/04/15 13:33:20;;;;;;;8.57;1.92;;;10.50;99.90;;;;;;4942469;28;20042;-81
2023/04/15 13:35:46;;;;;;;6.55;1.63;;;10.40;99.90;;;;;;4958396;28;20085;-77
2023/04/15 13:38:11;;;;;;;12.10;1.42;;;10.30;99.90;;;;;;4958351;28;20041;-81
2023/04/15 13:40:37;;;;;;;7.68;1.58;;;10.20;99.90;;;;;;4958218;28;20093;-80
2023/04/15 13:43:03;;;;;;;13.75;2.17;;;10.30;99.90;;;;;;4975807;28;20034;-80
2023/04/15 13:45:29;;;;;;;13.90;1.42;;;10.30;99.90;;;;;;4958207;28;20051;-78
2023/04/15 13:47:56;;;;;;;8.82;1.70;;;10.30;99.90;;;;;;4975600;28;20086;-80
2023/04/15 13:50:22;;;;;;;6.53;1.52;;;10.40;99.90;;;;;;4958083;28;20097;-81
2023/04/15 13:52:47;;;;;;;8.35;1.38;;;10.40;99.90;;;;;;4975249;28;20042;-77
2023/04/15 13:55:13;;;;;;;5.72;1.38;;;10.40;99.90;;;;;;4967265;28;20049;-79
2023/04/15 13:57:39;;;;;;;8.98;1.80;;;10.40;99.90;;;;;;4997854;28;20085;-79
2023/04/15 14:00:05;;;;;;;7.03;1.52;;;10.40;99.90;;;;;;4983021;28;20046;-79
2023/04/15 14:02:31;;;;;;;7.97;2.00;;;10.40;99.90;;;;;;4964938;28;20122;-78
2023/04/15 14:04:57;;;;;;;6.93;1.52;;;10.40;99.90;;;;;;4984820;28;20116;-80
2023/04/15 14:07:22;;;;;;;9.70;1.77;;;10.40;99.90;;;;;;4978603;28;20086;-78
2023/04/15 14:09:48;;;;;;;8.00;1.63;;;10.40;99.90;;;;;;4977917;28;20105;-78
2023/04/15 14:12:14;;;;;;;7.15;1.40;;;10.30;99.90;;;;;;4994997;28;20038;-80
2023/04/15 14:14:40;;;;;;;7.28;1.20;;;10.30;99.90;;;;;;4989801;28;20108;-79
2023/04/15 14:17:06;;;;;;;10.38;1.20;;;10.30;99.90;;;;;;4969901;28;20478;-81
2023/04/15 14:19:32;;;;;;;12.05;1.48;;;10.30;99.90;;;;;;4966225;28;20042;-80
2023/04/15 14:21:58;;;;;;;8.65;1.75;;;10.30;99.90;;;;;;4967951;28;20038;-81
2023/04/15 14:24:24;;;;;;;7.65;2.00;;;10.20;99.90;;;;;;4961763;28;20101;-81
2023/04/15 14:26:49;;;;;;;11.68;1.70;;;10.20;99.90;;;;;;4981322;28;20042;-81
2023/04/15 14:29:15;;;;;;;13.35;2.60;;;10.00;99.90;;;;;;4998747;28;20070;-80
2023/04/15 14:31:43;;;;;;;11.38;1.63;;;10.00;99.90;;;;;;4998520;28;20030;-78
2023/04/15 14:34:09;;;;;;;8.98;2.60;;;10.00;99.90;;;;;;4980816;28;20030;-80
2023/04/15 14:36:35;;;;;;;8.05;1.88;;;10.00;99.90;;;;;;4977700;28;20529;-79
2023/04/15 14:39:02;;;;;;;8.98;1.35;;;10.00;99.90;;;;;;4972643;28;20038;-79
2023/04/15 14:41:28;;;;;;;12.73;1.90;;;9.90;99.90;;;;;;4974931;28;20394;-82
2023/04/15 14:43:55;;;;;;;8.05;1.70;;;9.90;99.90;;;;;;4981846;28;20121;-81
2023/04/15 14:46:21;;;;;;;9.27;2.25;;;9.90;99.90;;;;;;4981315;28;20042;-79
2023/04/15 14:48:47;;;;;;;14.98;2.28;;;9.80;99.90;;;;;;4996649;28;20081;-78
2023/04/15 14:51:13;;;;;;;7.47;1.98;;;9.80;99.90;;;;;;4965754;28;20070;-79
2023/04/15 14:53:38;;;;;;;13.10;1.65;;;9.70;99.90;;;;;;4966286;28;20043;-81
2023/04/15 14:56:04;;;;;;;9.90;2.35;;;9.70;99.90;;;;;;4967537;28;20117;-79
2023/04/15 14:58:31;;;;;;;7.88;1.48;;;9.70;99.90;;;;;;4987054;28;20043;-79
2023/04/15 15:00:57;;;;;;;11.98;2.38;;;9.70;99.90;;;;;;4973171;28;20042;-78
2023/04/15 15:03:23;;;;;;;11.15;1.92;;;9.70;99.90;;;;;;4970530;28;20049;-77
2023/04/15 15:05:48;;;;;;;8.77;1.67;;;9.70;99.90;;;;;;4960227;28;20038;-81
2023/04/15 15:08:14;;;;;;;10.85;2.10;;;9.70;99.90;;;;;;4967137;28;20069;-81
2023/04/15 15:10:40;;;;;;;14.07;2.20;;;9.70;99.90;;;;;;4988617;28;20046;-80
2023/04/15 15:13:08;;;;;;;11.50;1.80;;;9.60;99.90;;;;;;4970741;28;20082;-78
2023/04/15 15:15:35;;;;;;;7.07;1.80;;;9.50;99.90;;;;;;4969259;28;20551;-80
2023/04/15 15:18:01;;;;;;;8.30;1.92;;;9.50;99.90;;;;;;4972382;28;20487;-77
2023/04/15 15:20:27;;;;;;;12.55;2.55;;;9.50;99.90;;;;;;4973356;28;20081;-78
2023/04/15 15:22:53;;;;;;;5.93;1.70;;;9.50;99.90;;;;;;4954491;28;20078;-80
2023/04/15 15:25:19;;;;;;;9.02;1.98;;;9.40;99.90;;;;;;4987092;28;20031;-80
2023/04/15 15:27:45;;;;;;;8.90;1.90;;;9.30;99.90;;;;;;4963941;28;20530;-80
2023/04/15 15:30:11;;;;;;;9.75;1.98;;;9.30;99.90;;;;;;4979639;28;20053;-79
2023/04/15 15:32:39;;;;;;;10.48;2.28;;;9.30;99.90;;;;;;4990308;28;20038;-81
2023/04/15 15:35:06;;;;;;;8.57;2.33;;;9.30;99.90;;;;;;4984478;28;20247;-80
2023/04/15 15:37:31;;;;;;;12.80;2.55;;;9.30;99.90;;;;;;4969843;28;20042;-79
2023/04/15 15:39:57;;;;;;;9.15;1.70;;;9.30;99.90;;;;;;4971853;28;20433;-80
2023/04/15 15:42:23;;;;;;;9.77;2.10;;;9.30;99.90;;;;;;4989085;28;20026;-77
2023/04/15 15:44:51;;;;;;;11.05;1.95;;;9.30;99.90;;;;;;4979905;28;20093;-80
2023/04/15 15:47:20;;;;;;;5.75;1.88;;;9.20;99.90;;;;;;4963142;28;20042;-79
2023/04/15 15:49:46;;;;;;;10.63;2.08;;;9.20;99.90;;;;;;4980972;28;20041;-80
2023/04/15 15:52:11;;;;;;;11.45;2.35;;;9.20;99.90;;;;;;4971672;28;20474;-81
2023/04/15 15:54:39;;;;;;;9.13;1.92;;;9.30;99.90;;;;;;4969801;28;20514;-78
2023/04/15 15:57:05;;;;;;;10.45;1.83;;;9.20;99.90;;;;;;4985519;28;20070;-79
2023/04/15 15:59:31;;;;;;;10.15;1.92;;;9.20;99.90;;;;;;4971468;28;20431;-80
2023/04/15 16:01:58;;;;;;;10.48;1.80;;;9.10;99.90;;;;;;4968929;28;20038;-77
2023/04/15 16:04:24;;;;;;;14.88;2.05;;;9.10;99.90;;;;;;4970284;28;20058;-79
2023/04/15 16:06:50;;;;;;;8.00;2.40;;;9.10;99.90;;;;;;4968811;28;20441;-82
2023/04/15 16:09:16;;;;;;;9.57;2.42;;;9.10;99.90;;;;;;4967201;28;20442;-78
2023/04/15 16:11:42;;;;;;;9.15;2.00;;;9.10;99.90;;;;;;4970670;28;20088;-81
2023/04/15 16:14:08;;;;;;;7.93;1.90;;;9.10;99.90;;;;;;4986348;28;20103;-82
2023/04/15 16:16:34;;;;;;;13.60;1.85;;;9.10;99.90;;;;;;4955009;28;20066;-80
2023/04/15 16:19:00;;;;;;;9.32;2.03;;;9.10;99.90;;;;;;4984699;28;20049;-81
2023/04/15 16:21:26;;;;;;;9.82;2.22;;;9.10;99.90;;;;;;4959689;28;20125;-79
2023/04/15 16:23:52;;;;;;;11.15;2.30;;;9.00;99.90;;;;;;4978987;28;20468;-82
2023/04/15 16:26:17;;;;;;;7.05;1.95;;;9.00;99.90;;;;;;4979335;28;20046;-81
2023/04/15 16:28:43;;;;;;;9.02;2.33;;;9.00;99.90;;;;;;4979448;28;20045;-79
2023/04/15 16:31:10;;;;;;;8.93;2.30;;;9.00;99.90;;;;;;4975996;28;20042;-81
2023/04/15 16:33:36;;;;;;;8.73;2.03;;;9.00;99.90;;;;;;4996455;28;20085;-80
2023/04/15 16:36:03;;;;;;;9.90;2.42;;;9.00;99.90;;;;;;4973179;28;20049;-78
2023/04/15 16:38:29;;;;;;;11.98;2.80;;;9.00;99.90;;;;;;4970758;28;20038;-79
2023/04/15 16:40:58;;;;;;;9.82;2.22;;;8.90;99.90;;;;;;4986242;28;20129;-78
2023/04/15 16:43:24;;;;;;;10.60;1.90;;;8.90;99.90;;;;;;4984225;28;20096;-83